Time;durP1;ratioP1;P1;durP2;ratioP2;P2;SDS_P1;SDS_P2;PMS_P1;PMS_P2;Temp;Humidity;BMP_temperature;BMP_pressure;BME280_temperature;BME280_humidity;BME280_pressure;Samples;Min_cycle;Max_cycle;Signal;HPM_P1;HPM_P2
2022/10/06 00:00:29;;;;;;;3.10;0.80;;;16.90;86.70;;;;;;5011399;28;20044;-80
2022/10/06 00:02:54;;;;;;;1.80;0.77;;;16.80;86.60;;;;;;5010071;28;20022;-80
2022/10/06 00:05:20;;;;;;;3.00;0.80;;;16.80;86.70;;;;;;5004494;28;20399;-80
2022/10/06 00:07:47;;;;;;;1.93;0.60;;;16.80;86.60;;;;;;5007476;28;20030;-80
2022/10/06 00:10:12;;;;;;;0.98;0.50;;;16.80;86.50;;;;;;5014737;28;20037;-80
2022/10/06 00:12:40;;;;;;;2.63;0.60;;;16.70;86.60;;;;;;5022402;28;20044;-80
2022/10/06 00:15:07;;;;;;;3.87;0.90;;;16.70;86.40;;;;;;5006247;28;20858;-80
2022/10/06 00:17:32;;;;;;;2.88;0.60;;;16.60;86.40;;;;;;5011211;28;20081;-80
2022/10/06 00:19:58;;;;;;;2.35;0.60;;;16.60;86.40;;;;;;5020737;28;20106;-80
2022/10/06 00:22:24;;;;;;;4.10;0.60;;;16.50;86.30;;;;;;4997517;28;20112;-80
2022/10/06 00:24:49;;;;;;;3.60;0.70;;;16.50;86.40;;;;;;5020113;28;20613;-81
2022/10/06 00:27:15;;;;;;;5.82;0.80;;;16.50;86.40;;;;;;5006647;28;20029;-81
2022/10/06 00:29:41;;;;;;;2.30;0.70;;;16.50;86.40;;;;;;5015855;28;20564;-81
2022/10/06 00:32:10;;;;;;;1.58;0.70;;;16.40;86.30;;;;;;5012466;28;20037;-80
2022/10/06 00:34:35;;;;;;;2.70;0.70;;;16.40;86.30;;;;;;5004069;28;20432;-80
2022/10/06 00:37:02;;;;;;;4.00;0.70;;;16.30;86.20;;;;;;4992958;28;20033;-79
2022/10/06 00:39:27;;;;;;;4.18;0.73;;;16.30;86.00;;;;;;5006486;28;20022;-80
2022/10/06 00:41:53;;;;;;;3.50;0.63;;;16.30;86.00;;;;;;4993258;28;20033;-80
2022/10/06 00:44:19;;;;;;;2.40;0.63;;;16.30;86.00;;;;;;5017340;28;20029;-80
2022/10/06 00:46:49;;;;;;;2.53;0.70;;;16.20;85.90;;;;;;5013794;28;20062;-79
2022/10/06 00:49:29;;;;;;;3.03;0.65;;;16.20;85.40;;;;;;5017157;28;20049;-80
2022/10/06 00:52:01;;;;;;;2.83;0.60;;;16.20;85.00;;;;;;5002258;28;20030;-79
2022/10/06 00:54:27;;;;;;;2.15;0.50;;;16.10;85.30;;;;;;5003540;28;20049;-80
2022/10/06 00:56:53;;;;;;;1.70;0.60;;;16.10;85.40;;;;;;5024229;28;20033;-80
2022/10/06 00:59:19;;;;;;;1.33;0.50;;;16.10;85.30;;;;;;5001242;28;20021;-80
2022/10/06 01:02:00;;;;;;;2.60;0.63;;;16.00;85.30;;;;;;5014233;28;21013;-81
2022/10/06 01:04:29;;;;;;;2.25;0.60;;;16.00;84.80;;;;;;5004508;28;20033;-80
2022/10/06 01:06:57;;;;;;;2.43;0.70;;;16.00;85.20;;;;;;5005356;28;20028;-81
2022/10/06 01:09:24;;;;;;;2.30;0.63;;;15.90;85.10;;;;;;4989752;28;20501;-79
2022/10/06 01:11:52;;;;;;;1.85;0.47;;;15.90;85.30;;;;;;5026472;28;20634;-80
2022/10/06 01:14:19;;;;;;;3.05;0.52;;;15.90;85.20;;;;;;5006406;28;20025;-80
2022/10/06 01:16:50;;;;;;;3.95;0.80;;;15.80;85.00;;;;;;5023162;28;20079;-79
2022/10/06 01:19:25;;;;;;;2.97;0.80;;;15.80;85.00;;;;;;5013482;28;20033;-80
2022/10/06 01:21:53;;;;;;;2.88;0.82;;;15.80;84.50;;;;;;5013470;28;20030;-79
2022/10/06 01:24:18;;;;;;;2.13;0.73;;;15.70;85.00;;;;;;4993962;28;20140;-80
2022/10/06 01:26:48;;;;;;;4.87;0.80;;;15.70;85.20;;;;;;5010466;28;20280;-79
2022/10/06 01:29:14;;;;;;;3.30;0.77;;;15.70;85.00;;;;;;5029735;28;20056;-79
2022/10/06 01:31:42;;;;;;;4.03;0.82;;;15.70;85.30;;;;;;4993563;28;20092;-80
2022/10/06 01:34:08;;;;;;;2.15;0.63;;;15.60;85.10;;;;;;5012878;28;20048;-79
2022/10/06 01:36:34;;;;;;;2.50;0.60;;;15.60;85.00;;;;;;5008195;28;20029;-80
2022/10/06 01:38:59;;;;;;;2.40;0.80;;;15.60;85.10;;;;;;5021239;28;20391;-80
2022/10/06 01:41:26;;;;;;;1.83;0.67;;;15.60;85.10;;;;;;4998102;28;20032;-80
2022/10/06 01:43:52;;;;;;;5.32;0.90;;;15.50;85.10;;;;;;5025550;28;20478;-80
2022/10/06 01:46:18;;;;;;;3.85;0.70;;;15.50;85.30;;;;;;4991975;28;20076;-79
2022/10/06 01:48:43;;;;;;;2.17;0.60;;;15.40;85.10;;;;;;5006965;28;20351;-80
2022/10/06 01:51:14;;;;;;;5.10;0.90;;;15.40;85.20;;;;;;5027793;28;20029;-80
2022/10/06 01:53:40;;;;;;;3.97;0.87;;;15.40;85.00;;;;;;5017175;28;20473;-80
2022/10/06 01:56:07;;;;;;;2.67;0.70;;;15.40;85.20;;;;;;5004218;28;20311;-79
2022/10/06 01:58:33;;;;;;;2.67;0.88;;;15.30;85.20;;;;;;4998249;28;20060;-80
2022/10/06 02:01:07;;;;;;;3.08;0.73;;;15.20;85.20;;;;;;5005012;28;20022;-80
2022/10/06 02:03:34;;;;;;;2.00;0.73;;;15.20;84.90;;;;;;4992559;28;20026;-80
2022/10/06 02:06:00;;;;;;;3.78;0.57;;;15.20;85.20;;;;;;5014947;28;20025;-79
2022/10/06 02:08:26;;;;;;;3.55;0.88;;;15.10;85.20;;;;;;5010284;28;20033;-80
2022/10/06 02:10:52;;;;;;;3.05;0.70;;;15.10;85.20;;;;;;4998222;28;20479;-80
2022/10/06 02:13:17;;;;;;;2.80;0.80;;;15.10;85.30;;;;;;5022951;28;20072;-79
2022/10/06 02:15:43;;;;;;;4.27;0.80;;;15.00;86.00;;;;;;4987977;28;20234;-79
2022/10/06 02:18:09;;;;;;;5.45;0.88;;;15.00;85.20;;;;;;5004151;28;20063;-80
2022/10/06 02:20:35;;;;;;;4.25;0.82;;;14.90;85.20;;;;;;4994305;28;20127;-79
2022/10/06 02:23:00;;;;;;;3.90;0.77;;;14.90;85.40;;;;;;4996729;28;20032;-79
2022/10/06 02:25:26;;;;;;;2.67;0.70;;;14.90;85.40;;;;;;4991662;28;20064;-79
2022/10/06 02:27:53;;;;;;;2.87;0.80;;;14.80;85.40;;;;;;5013097;28;20539;-80
2022/10/06 02:30:19;;;;;;;3.40;0.65;;;14.80;85.40;;;;;;5002865;28;20013;-80
2022/10/06 02:32:45;;;;;;;3.70;0.70;;;14.80;85.50;;;;;;5031856;28;20250;-80
2022/10/06 02:35:11;;;;;;;5.18;0.70;;;14.70;85.50;;;;;;5014339;28;20430;-80
2022/10/06 02:37:38;;;;;;;3.28;0.68;;;14.70;85.40;;;;;;5012310;28;20072;-80
2022/10/06 02:40:04;;;;;;;3.87;0.77;;;14.60;85.40;;;;;;5012452;28;20056;-79
2022/10/06 02:42:30;;;;;;;2.15;0.80;;;14.60;85.50;;;;;;5000483;28;20049;-80
2022/10/06 02:44:57;;;;;;;2.53;0.60;;;14.60;85.50;;;;;;4988652;28;20545;-80
2022/10/06 02:47:23;;;;;;;3.85;1.00;;;14.60;85.50;;;;;;5006301;28;20052;-79
2022/10/06 02:49:49;;;;;;;3.60;0.70;;;14.50;85.60;;;;;;5018597;28;20353;-80
2022/10/06 02:52:15;;;;;;;3.33;0.65;;;14.50;85.60;;;;;;5006037;28;20047;-80
2022/10/06 02:54:41;;;;;;;2.47;0.60;;;14.40;85.70;;;;;;5006654;28;20026;-80
2022/10/06 02:57:07;;;;;;;4.87;0.77;;;14.50;85.80;;;;;;4991586;28;20291;-79
2022/10/06 02:59:33;;;;;;;3.97;0.90;;;14.40;85.90;;;;;;5015299;28;20060;-80
2022/10/06 03:01:59;;;;;;;3.25;0.70;;;14.40;85.80;;;;;;4987288;28;20290;-80
2022/10/06 03:04:25;;;;;;;5.27;0.93;;;14.40;85.90;;;;;;5020734;28;20041;-80
2022/10/06 03:06:50;;;;;;;2.95;0.65;;;14.30;85.90;;;;;;5004878;28;20037;-79
2022/10/06 03:09:17;;;;;;;3.83;0.80;;;14.30;86.00;;;;;;5001395;28;20444;-79
2022/10/06 03:11:43;;;;;;;3.25;0.70;;;14.30;86.80;;;;;;5000763;28;20030;-80
2022/10/06 03:14:09;;;;;;;2.42;0.70;;;14.30;86.10;;;;;;5001634;28;20214;-80
2022/10/06 03:16:40;;;;;;;5.43;0.60;;;14.30;86.10;;;;;;4995760;28;20076;-80
2022/10/06 03:19:08;;;;;;;3.70;0.70;;;14.30;85.90;;;;;;5004910;28;20138;-80
2022/10/06 03:21:36;;;;;;;2.83;0.55;;;14.20;86.00;;;;;;5002442;28;20602;-80
2022/10/06 03:24:02;;;;;;;4.65;0.93;;;14.20;85.90;;;;;;4986052;28;20033;-80
2022/10/06 03:26:33;;;;;;;3.73;0.80;;;14.20;86.00;;;;;;5004959;28;20053;-79
2022/10/06 03:28:59;;;;;;;2.90;0.70;;;14.20;86.00;;;;;;5013913;28;20033;-81
2022/10/06 03:31:25;;;;;;;3.15;0.90;;;14.10;86.00;;;;;;5001876;28;20034;-79
2022/10/06 03:33:52;;;;;;;4.35;0.73;;;14.10;86.00;;;;;;5017960;28;20229;-80
2022/10/06 03:36:21;;;;;;;2.95;0.70;;;14.10;86.00;;;;;;5005211;28;20033;-79
2022/10/06 03:38:47;;;;;;;3.17;0.90;;;14.10;86.00;;;;;;5006068;28;20402;-81
2022/10/06 03:41:15;;;;;;;6.90;0.75;;;14.00;86.10;;;;;;5012483;28;20022;-80
2022/10/06 03:43:43;;;;;;;4.43;0.88;;;14.00;86.10;;;;;;5008500;28;20112;-80
2022/10/06 03:46:14;;;;;;;5.15;0.77;;;14.00;86.20;;;;;;5015879;28;20105;-80
2022/10/06 03:48:41;;;;;;;3.23;0.50;;;14.00;86.10;;;;;;5003936;28;20033;-80
2022/10/06 03:51:22;;;;;;;2.85;0.63;;;13.90;86.20;;;;;;5005327;28;20254;-79
2022/10/06 03:53:49;;;;;;;3.85;0.70;;;13.90;86.00;;;;;;5004479;28;20486;-80
2022/10/06 03:56:18;;;;;;;3.65;0.60;;;13.90;86.30;;;;;;5019211;28;20032;-80
2022/10/06 03:58:48;;;;;;;4.57;0.80;;;13.80;86.30;;;;;;4993105;28;20751;-80
2022/10/06 04:01:19;;;;;;;3.13;0.60;;;13.80;86.30;;;;;;5015712;28;20021;-79
2022/10/06 04:03:45;;;;;;;4.25;0.80;;;13.80;86.30;;;;;;5012259;28;20039;-80
2022/10/06 04:06:14;;;;;;;4.97;0.90;;;13.80;86.40;;;;;;5015394;28;20174;-80
2022/10/06 04:08:40;;;;;;;3.25;0.80;;;13.70;86.40;;;;;;5007265;28;20060;-80
2022/10/06 04:11:09;;;;;;;2.78;0.80;;;13.70;86.60;;;;;;5030792;28;20699;-80
2022/10/06 04:13:35;;;;;;;4.30;0.83;;;13.70;86.60;;;;;;5017517;28;20080;-80
2022/10/06 04:16:20;;;;;;;2.88;0.70;;;13.70;86.60;;;;;;5011157;28;20113;-80
2022/10/06 04:18:49;;;;;;;4.78;0.88;;;13.60;86.30;;;;;;5022167;28;20025;-79
2022/10/06 04:21:15;;;;;;;5.03;1.10;;;13.60;86.50;;;;;;4998794;28;20117;-79
2022/10/06 04:23:41;;;;;;;2.50;0.73;;;13.60;86.70;;;;;;5012675;28;20026;-80
2022/10/06 04:26:10;;;;;;;3.03;0.90;;;13.60;86.80;;;;;;5010950;28;21304;-80
2022/10/06 04:28:40;;;;;;;3.42;0.55;;;13.50;86.70;;;;;;5012195;28;20504;-79
2022/10/06 04:31:13;;;;;;;2.10;0.65;;;13.50;86.80;;;;;;4990893;28;20699;-79
2022/10/06 04:33:39;;;;;;;3.15;0.70;;;13.50;86.70;;;;;;4997404;28;20113;-80
2022/10/06 04:36:07;;;;;;;6.13;0.90;;;13.50;86.80;;;;;;5000309;28;20541;-80
2022/10/06 04:38:36;;;;;;;5.38;0.88;;;13.50;86.80;;;;;;5008623;28;20622;-80
2022/10/06 04:41:07;;;;;;;3.60;0.77;;;13.50;86.80;;;;;;5032466;28;20024;-82
2022/10/06 04:43:33;;;;;;;3.72;0.70;;;13.40;86.80;;;;;;4992758;28;20395;-82
2022/10/06 04:46:00;;;;;;;3.03;0.63;;;13.40;86.90;;;;;;5005322;28;20068;-83
2022/10/06 04:48:27;;;;;;;4.05;0.70;;;13.40;86.90;;;;;;5009683;28;20353;-82
2022/10/06 04:51:00;;;;;;;3.38;0.73;;;13.30;86.90;;;;;;5001421;28;21048;-82
2022/10/06 04:53:27;;;;;;;3.55;0.70;;;13.30;86.80;;;;;;5008114;28;20033;-83
2022/10/06 04:56:12;;;;;;;3.67;0.63;;;13.30;87.00;;;;;;5009406;28;20053;-82
2022/10/06 04:58:44;;;;;;;2.20;0.60;;;13.30;86.90;;;;;;5013802;28;20038;-82
2022/10/06 05:01:17;;;;;;;2.38;0.60;;;13.20;86.90;;;;;;4985226;28;20699;-82
2022/10/06 05:03:44;;;;;;;3.05;0.65;;;13.20;87.10;;;;;;5021108;28;20034;-83
2022/10/06 05:06:24;;;;;;;2.88;0.70;;;13.20;87.20;;;;;;4990442;28;20814;-82
2022/10/06 05:08:52;;;;;;;4.95;0.60;;;13.20;87.20;;;;;;5007959;28;20074;-82
2022/10/06 05:11:19;;;;;;;2.10;0.60;;;13.10;87.30;;;;;;5019642;28;20342;-82
2022/10/06 05:13:45;;;;;;;3.35;0.90;;;13.10;87.40;;;;;;5002958;28;20064;-83
2022/10/06 05:16:13;;;;;;;3.47;0.80;;;13.10;87.50;;;;;;4986901;28;20590;-82
2022/10/06 05:18:39;;;;;;;3.15;0.80;;;13.10;87.60;;;;;;5011552;28;20064;-82
2022/10/06 05:21:14;;;;;;;2.92;0.60;;;13.10;87.60;;;;;;5012271;28;20250;-82
2022/10/06 05:23:42;;;;;;;2.93;0.90;;;13.10;87.60;;;;;;4997675;28;20066;-80
2022/10/06 05:26:09;;;;;;;3.22;0.70;;;13.00;87.60;;;;;;4999225;28;20554;-80
2022/10/06 05:28:35;;;;;;;2.35;0.60;;;13.00;87.60;;;;;;5008328;28;20021;-79
2022/10/06 05:31:11;;;;;;;2.37;0.70;;;13.00;87.70;;;;;;4982292;28;20417;-80
2022/10/06 05:33:37;;;;;;;4.15;0.82;;;13.00;87.70;;;;;;5022006;28;20033;-80
2022/10/06 05:36:12;;;;;;;3.35;0.70;;;13.00;87.70;;;;;;4995648;28;20251;-80
2022/10/06 05:38:38;;;;;;;5.85;1.60;;;12.90;87.70;;;;;;5012454;28;20304;-80
2022/10/06 05:41:09;;;;;;;6.57;1.97;;;12.90;88.30;;;;;;5006331;28;20514;-80
2022/10/06 05:43:35;;;;;;;8.13;2.22;;;12.90;87.90;;;;;;5014368;28;20030;-80
2022/10/06 05:46:03;;;;;;;4.50;1.65;;;12.90;88.10;;;;;;4969307;28;20029;-80
2022/10/06 05:48:30;;;;;;;7.57;2.58;;;12.90;88.10;;;;;;5018379;28;20095;-80
2022/10/06 05:51:00;;;;;;;8.10;2.73;;;12.80;88.10;;;;;;5002190;28;20061;-80
2022/10/06 05:53:30;;;;;;;7.55;2.63;;;12.80;88.10;;;;;;4992944;28;20536;-80
2022/10/06 05:56:11;;;;;;;5.63;2.10;;;12.80;88.10;;;;;;4993839;28;20056;-80
2022/10/06 05:58:38;;;;;;;4.60;1.90;;;12.80;88.20;;;;;;5019060;28;20029;-80
2022/10/06 06:01:23;;;;;;;5.20;1.70;;;12.80;88.20;;;;;;4998908;28;20033;-80
2022/10/06 06:03:53;;;;;;;4.13;1.33;;;12.70;88.20;;;;;;4997139;28;20325;-80
2022/10/06 06:06:21;;;;;;;5.65;1.48;;;12.70;88.30;;;;;;5007904;28;20548;-80
2022/10/06 06:08:57;;;;;;;4.05;1.38;;;12.70;88.40;;;;;;4994611;28;20498;-80
2022/10/06 06:11:26;;;;;;;6.07;1.17;;;12.70;89.40;;;;;;5002901;28;20045;-80
2022/10/06 06:14:03;;;;;;;7.03;1.77;;;12.70;88.70;;;;;;5011412;28;20498;-80
2022/10/06 06:16:30;;;;;;;6.33;1.57;;;12.70;88.90;;;;;;4994820;28;20351;-80
2022/10/06 06:18:56;;;;;;;5.10;1.30;;;12.60;88.80;;;;;;5001998;28;20592;-80
2022/10/06 06:21:22;;;;;;;6.68;1.38;;;12.60;88.90;;;;;;5010405;28;20387;-81
2022/10/06 06:23:49;;;;;;;4.80;1.30;;;12.60;89.00;;;;;;4992044;28;20140;-80
2022/10/06 06:26:26;;;;;;;4.30;1.30;;;12.60;89.20;;;;;;5006812;28;20025;-80
2022/10/06 06:28:53;;;;;;;4.03;1.13;;;12.60;89.30;;;;;;5005345;28;20051;-80
2022/10/06 06:31:25;;;;;;;4.65;1.33;;;12.70;90.00;;;;;;4998002;28;20079;-80
2022/10/06 06:33:53;;;;;;;2.67;0.80;;;12.70;89.50;;;;;;5012118;28;20120;-80
2022/10/06 06:36:34;;;;;;;3.60;0.80;;;12.70;89.50;;;;;;5001513;28;20048;-80
2022/10/06 06:39:02;;;;;;;3.67;1.05;;;12.70;89.60;;;;;;5003397;28;20119;-80
2022/10/06 06:41:31;;;;;;;3.33;0.70;;;12.70;89.70;;;;;;5000654;28;20130;-80
2022/10/06 06:43:58;;;;;;;2.80;1.00;;;12.80;89.90;;;;;;5004100;28;20112;-80
2022/10/06 06:46:27;;;;;;;3.28;0.80;;;12.80;90.00;;;;;;5009019;28;20025;-80
2022/10/06 06:48:57;;;;;;;3.55;0.90;;;12.80;90.00;;;;;;4997680;28;20403;-81
2022/10/06 06:51:23;;;;;;;4.20;0.80;;;12.80;90.10;;;;;;5028055;28;20117;-80
2022/10/06 06:53:50;;;;;;;3.03;0.80;;;12.90;90.20;;;;;;5015462;28;20116;-80
2022/10/06 06:56:16;;;;;;;5.43;0.77;;;12.90;90.20;;;;;;5030412;28;20105;-80
2022/10/06 06:58:49;;;;;;;3.35;0.93;;;12.90;90.30;;;;;;5013614;28;20345;-80
2022/10/06 07:01:17;;;;;;;5.30;0.95;;;13.00;90.30;;;;;;4988725;28;20479;-80
2022/10/06 07:03:46;;;;;;;3.13;0.80;;;13.00;90.40;;;;;;4984432;28;20203;-80
2022/10/06 07:06:15;;;;;;;2.67;0.83;;;13.10;90.40;;;;;;5029537;28;20033;-81
2022/10/06 07:08:44;;;;;;;3.08;0.70;;;13.10;90.50;;;;;;5045706;28;20025;-80
2022/10/06 07:11:17;;;;;;;3.88;0.85;;;13.20;91.00;;;;;;5007158;28;20025;-79
2022/10/06 07:13:44;;;;;;;2.13;0.80;;;13.30;90.80;;;;;;5002581;28;20049;-80
2022/10/06 07:27:22;;;;;;;7.72;0.90;;;15.10;95.30;;;;;;5009905;28;20129;-80
2022/10/06 07:29:52;;;;;;;6.00;1.03;;;15.80;95.70;;;;;;5013653;28;20030;-81
2022/10/06 07:32:20;;;;;;;4.00;1.05;;;16.30;95.70;;;;;;5009704;28;20033;-81
2022/10/06 07:34:46;;;;;;;5.22;1.00;;;16.80;95.30;;;;;;4996623;28;20117;-80
2022/10/06 07:37:12;;;;;;;4.35;0.85;;;17.40;95.00;;;;;;4996278;28;20029;-80
2022/10/06 07:39:37;;;;;;;5.57;1.00;;;17.80;95.00;;;;;;5009465;28;20025;-81
2022/10/06 07:42:12;;;;;;;3.90;0.82;;;18.40;94.50;;;;;;4990687;28;20686;-80
2022/10/06 07:44:38;;;;;;;4.73;1.00;;;18.80;93.50;;;;;;5012051;28;20080;-80
2022/10/06 07:47:05;;;;;;;4.88;1.00;;;19.30;93.90;;;;;;5003540;28;20432;-80
2022/10/06 07:49:31;;;;;;;5.00;0.90;;;19.70;93.50;;;;;;4993668;28;20057;-81
2022/10/06 07:51:57;;;;;;;5.53;1.13;;;20.10;93.20;;;;;;5014898;28;20104;-80
2022/10/06 07:54:24;;;;;;;4.37;1.30;;;20.50;92.60;;;;;;5000994;28;20409;-80
2022/10/06 07:56:50;;;;;;;2.97;1.00;;;20.90;92.00;;;;;;5013138;28;20026;-81
2022/10/06 07:59:16;;;;;;;3.72;1.10;;;21.20;91.70;;;;;;5000705;28;20033;-80
2022/10/06 08:01:43;;;;;;;4.70;1.00;;;21.50;91.20;;;;;;5005855;28;20021;-80
2022/10/06 08:04:09;;;;;;;5.50;2.20;;;21.80;91.00;;;;;;4998694;28;20021;-80
2022/10/06 08:06:35;;;;;;;3.47;0.97;;;22.00;91.00;;;;;;5000084;28;20687;-79
2022/10/06 08:09:01;;;;;;;3.60;1.00;;;22.30;90.60;;;;;;5028716;28;20024;-81
2022/10/06 08:11:26;;;;;;;2.90;0.90;;;22.50;89.70;;;;;;5005628;28;20192;-81
2022/10/06 08:13:52;;;;;;;3.67;0.93;;;22.70;89.10;;;;;;5004769;28;20076;-81
2022/10/06 08:16:20;;;;;;;4.43;1.08;;;22.80;87.80;;;;;;5002847;28;20017;-81
2022/10/06 08:18:53;;;;;;;3.10;1.10;;;22.90;86.80;;;;;;5033223;28;20048;-81
2022/10/06 08:21:22;;;;;;;4.07;1.07;;;22.90;83.50;;;;;;5035344;28;20052;-81
2022/10/06 08:23:49;;;;;;;4.35;1.00;;;22.80;84.00;;;;;;5005230;28;20049;-80
2022/10/06 08:26:17;;;;;;;3.67;0.90;;;22.60;84.00;;;;;;5000725;28;20385;-80
2022/10/06 08:28:48;;;;;;;4.07;1.02;;;22.50;82.90;;;;;;5001521;28;20022;-81
2022/10/06 08:31:15;;;;;;;3.95;1.00;;;22.30;82.20;;;;;;5009215;28;20474;-81
2022/10/06 08:33:41;;;;;;;4.63;0.97;;;22.20;85.20;;;;;;5014573;28;20018;-81
2022/10/06 08:36:10;;;;;;;3.08;0.90;;;22.10;85.40;;;;;;5000895;28;20026;-80
2022/10/06 08:38:37;;;;;;;2.75;0.90;;;22.20;86.00;;;;;;5004389;28;20083;-81
2022/10/06 08:41:23;;;;;;;4.13;1.00;;;22.20;86.60;;;;;;5016804;28;20054;-79
2022/10/06 08:44:04;;;;;;;4.20;1.17;;;22.30;86.70;;;;;;5019576;28;20413;-80
2022/10/06 08:46:45;;;;;;;4.53;0.90;;;22.60;85.10;;;;;;5000737;28;20675;-81
2022/10/06 08:49:17;;;;;;;2.75;1.00;;;23.00;86.10;;;;;;5010273;28;20454;-80
2022/10/06 08:51:54;;;;;;;2.78;0.90;;;23.30;87.90;;;;;;5015852;28;20080;-81
2022/10/06 08:54:29;;;;;;;4.05;0.93;;;23.80;85.00;;;;;;4992813;28;20190;-80
2022/10/06 08:57:02;;;;;;;3.08;1.02;;;24.20;84.10;;;;;;5021127;28;20431;-81
2022/10/06 08:59:31;;;;;;;4.43;1.00;;;24.50;88.60;;;;;;4999352;28;20500;-81
2022/10/06 09:01:57;;;;;;;3.80;1.20;;;24.90;86.80;;;;;;5002788;28;20018;-80
2022/10/06 09:04:28;;;;;;;3.85;1.10;;;25.20;86.20;;;;;;5013098;28;20267;-81
2022/10/06 09:07:06;;;;;;;2.20;0.90;;;25.50;83.90;;;;;;5019768;28;20033;-81
2022/10/06 09:10:04;;;;;;;2.88;1.00;;;25.70;79.30;;;;;;5003391;28;20026;-81
2022/10/06 09:12:42;;;;;;;3.45;1.15;;;25.90;77.30;;;;;;5006691;28;20041;-80
2022/10/06 09:15:13;;;;;;;3.30;1.23;;;26.20;82.90;;;;;;4999252;28;20037;-80
2022/10/06 09:17:48;;;;;;;3.13;1.13;;;26.40;78.90;;;;;;5030163;28;20034;-80
2022/10/06 09:20:26;;;;;;;3.30;1.00;;;26.60;80.40;;;;;;4998347;28;20524;-80
2022/10/06 09:22:55;;;;;;;3.58;1.10;;;26.90;78.20;;;;;;5023944;28;20437;-80
2022/10/06 09:25:25;;;;;;;2.65;1.00;;;27.20;80.00;;;;;;5008891;28;20092;-81
2022/10/06 09:27:56;;;;;;;3.40;1.00;;;27.50;80.80;;;;;;5014964;28;20171;-81
2022/10/06 09:30:23;;;;;;;4.18;0.93;;;27.80;78.80;;;;;;5011534;28;20507;-81
2022/10/06 09:32:59;;;;;;;3.63;1.20;;;28.00;78.80;;;;;;4999676;28;20076;-81
2022/10/06 09:35:26;;;;;;;4.03;1.00;;;28.20;74.50;;;;;;5019354;28;20162;-80
2022/10/06 09:38:02;;;;;;;2.55;0.90;;;28.30;75.50;;;;;;5003406;28;20076;-81
2022/10/06 09:40:34;;;;;;;2.72;1.10;;;28.50;72.40;;;;;;4999695;28;20030;-81
2022/10/06 09:43:01;;;;;;;5.05;1.20;;;28.60;72.70;;;;;;5015061;28;20030;-80
2022/10/06 09:45:28;;;;;;;3.03;1.10;;;28.80;75.40;;;;;;5025517;28;20514;-80
2022/10/06 09:47:53;;;;;;;3.33;1.10;;;29.00;75.00;;;;;;5002463;28;20410;-80
2022/10/06 09:50:27;;;;;;;3.13;1.20;;;29.30;75.00;;;;;;5007584;28;20285;-80
2022/10/06 09:52:59;;;;;;;1.90;1.25;;;29.60;70.40;;;;;;5015160;28;20061;-81
2022/10/06 09:55:39;;;;;;;2.87;0.93;;;29.90;69.70;;;;;;5002175;28;20092;-81
2022/10/06 09:58:24;;;;;;;3.63;0.95;;;30.10;68.90;;;;;;5019157;28;20117;-81
2022/10/06 10:00:59;;;;;;;2.00;1.20;;;30.40;64.20;;;;;;5005637;28;20025;-80
2022/10/06 10:03:38;;;;;;;2.55;1.20;;;30.60;65.80;;;;;;5023120;28;20157;-80
2022/10/06 10:06:04;;;;;;;3.05;1.30;;;30.70;70.10;;;;;;5017119;28;20063;-80
2022/10/06 10:08:30;;;;;;;4.10;1.50;;;30.90;69.70;;;;;;5032017;28;20715;-82
2022/10/06 10:14:02;;;;;;;2.75;1.20;;;31.40;63.40;;;;;;5018256;28;20505;-81
2022/10/06 10:16:33;;;;;;;2.97;1.33;;;31.50;67.50;;;;;;5030387;28;20021;-81
2022/10/06 10:19:04;;;;;;;2.87;1.40;;;31.50;64.30;;;;;;5000385;28;20325;-81
2022/10/06 10:21:35;;;;;;;3.42;1.20;;;31.50;63.60;;;;;;5015014;28;20167;-81
2022/10/06 10:24:05;;;;;;;1.83;0.90;;;31.40;63.40;;;;;;4994642;28;20442;-80
2022/10/06 10:26:56;;;;;;;2.65;1.13;;;31.40;62.30;;;;;;5000303;28;20726;-81
2022/10/06 10:29:29;;;;;;;2.20;1.02;;;31.40;56.20;;;;;;5023634;28;20057;-81
2022/10/06 10:32:07;;;;;;;2.70;1.27;;;31.50;59.10;;;;;;5011142;28;20112;-81
2022/10/06 10:34:57;;;;;;;3.05;1.10;;;31.50;58.90;;;;;;5014896;28;20052;-80
2022/10/06 10:37:59;;;;;;;1.95;1.40;;;31.60;58.90;;;;;;5011065;28;20559;-81
2022/10/06 10:40:36;;;;;;;2.25;1.27;;;31.60;58.20;;;;;;5009640;28;20223;-82
2022/10/06 10:43:04;;;;;;;2.92;1.40;;;31.60;57.30;;;;;;5004238;28;20505;-81
2022/10/06 10:45:35;;;;;;;1.93;1.30;;;31.60;61.20;;;;;;5012856;28;20033;-82
2022/10/06 10:48:17;;;;;;;2.10;1.17;;;31.60;59.80;;;;;;5005164;28;20541;-80
2022/10/06 10:51:08;;;;;;;2.33;1.20;;;31.60;58.20;;;;;;5018378;28;20120;-80
2022/10/06 10:53:52;;;;;;;3.13;1.10;;;31.70;57.30;;;;;;5008096;28;20162;-81
2022/10/06 10:56:22;;;;;;;2.38;1.17;;;31.80;60.90;;;;;;5006757;28;20686;-81
2022/10/06 10:58:55;;;;;;;2.23;1.50;;;32.00;59.30;;;;;;5021398;28;20083;-81
2022/10/06 11:01:28;;;;;;;2.50;1.25;;;32.20;58.10;;;;;;4989833;28;20428;-81
2022/10/06 11:03:55;;;;;;;2.42;1.00;;;32.40;57.00;;;;;;5002301;28;20510;-81
2022/10/06 11:06:56;;;;;;;2.92;1.20;;;32.60;59.30;;;;;;5018158;28;20739;-82
2022/10/06 11:09:32;;;;;;;2.72;1.20;;;32.60;53.40;;;;;;5008240;28;20088;-81
2022/10/06 11:12:17;;;;;;;3.10;1.10;;;32.60;53.30;;;;;;5016546;28;20548;-82
2022/10/06 11:15:00;;;;;;;2.33;1.08;;;32.50;55.50;;;;;;5004459;28;20029;-80
2022/10/06 11:17:42;;;;;;;2.33;0.90;;;32.40;55.20;;;;;;4993643;28;20255;-81
2022/10/06 11:20:33;;;;;;;2.50;1.40;;;32.40;52.20;;;;;;5003912;28;20056;-81
2022/10/06 11:23:05;;;;;;;2.03;0.88;;;32.40;53.00;;;;;;5010798;28;20389;-81
2022/10/06 11:25:54;;;;;;;2.27;1.23;;;32.40;54.00;;;;;;5011974;28;20045;-81
2022/10/06 11:28:28;;;;;;;3.22;1.45;;;32.60;50.40;;;;;;5005567;28;20717;-82
2022/10/06 11:30:59;;;;;;;2.08;1.27;;;32.60;53.90;;;;;;5012697;28;20028;-82
2022/10/06 11:33:49;;;;;;;1.90;1.13;;;32.70;52.90;;;;;;5007870;28;20305;-81
2022/10/06 11:36:21;;;;;;;2.13;1.10;;;32.70;48.80;;;;;;5014835;28;20426;-82
2022/10/06 11:39:21;;;;;;;2.47;1.20;;;32.70;51.60;;;;;;5005878;28;20344;-81
2022/10/06 11:42:01;;;;;;;2.20;0.88;;;32.70;49.70;;;;;;5015817;28;20104;-83
2022/10/06 11:44:37;;;;;;;2.15;1.10;;;32.80;50.70;;;;;;4988989;28;20041;-82
2022/10/06 11:47:10;;;;;;;1.10;1.00;;;32.90;50.90;;;;;;5014168;28;20178;-82
2022/10/06 11:49:50;;;;;;;1.83;0.90;;;33.10;51.50;;;;;;5016353;28;20447;-81
2022/10/06 11:52:16;;;;;;;2.70;1.40;;;33.40;49.10;;;;;;4999724;28;20025;-83
2022/10/06 11:54:42;;;;;;;2.33;1.20;;;33.50;53.00;;;;;;5020246;28;20375;-82
2022/10/06 11:57:22;;;;;;;3.17;1.10;;;33.60;52.20;;;;;;5010602;28;20025;-80
2022/10/06 12:00:16;;;;;;;2.17;1.05;;;33.70;47.40;;;;;;5019766;28;20384;-81
2022/10/06 12:02:45;;;;;;;2.22;0.93;;;33.70;48.60;;;;;;5008846;28;20383;-82
2022/10/06 12:05:11;;;;;;;3.17;1.57;;;33.80;51.60;;;;;;4996626;28;20045;-82
2022/10/06 12:07:56;;;;;;;2.30;1.10;;;33.80;51.00;;;;;;5008956;28;20282;-82
2022/10/06 12:10:28;;;;;;;1.73;1.20;;;33.80;45.10;;;;;;5016151;28;20241;-82
2022/10/06 12:13:12;;;;;;;2.78;1.30;;;33.80;47.10;;;;;;5016927;28;20414;-81
2022/10/06 12:15:51;;;;;;;1.88;1.08;;;34.00;46.30;;;;;;5034766;28;20038;-82
2022/10/06 12:18:29;;;;;;;1.80;1.10;;;33.80;43.50;;;;;;5002012;28;20033;-83
2022/10/06 12:21:17;;;;;;;1.92;1.23;;;33.80;49.20;;;;;;5015946;28;20139;-82
2022/10/06 12:24:18;;;;;;;1.70;1.10;;;33.70;44.80;;;;;;4994155;28;20066;-82
2022/10/06 12:27:10;;;;;;;1.85;1.20;;;33.50;42.60;;;;;;4998632;28;20474;-81
2022/10/06 12:30:00;;;;;;;2.38;1.10;;;33.40;43.70;;;;;;5012531;28;20333;-82
2022/10/06 12:32:55;;;;;;;3.27;1.10;;;33.30;45.00;;;;;;5003529;28;20068;-81
2022/10/06 12:35:29;;;;;;;4.65;1.45;;;33.20;44.40;;;;;;5017144;28;20033;-82
2022/10/06 12:37:57;;;;;;;2.22;1.10;;;33.20;46.20;;;;;;5023696;28;20091;-81
2022/10/06 12:40:39;;;;;;;3.25;1.27;;;33.30;48.10;;;;;;5005313;28;20383;-82
2022/10/06 12:43:16;;;;;;;3.90;1.30;;;33.40;45.60;;;;;;5014424;28;20076;-82
2022/10/06 12:45:56;;;;;;;2.10;1.30;;;33.30;44.50;;;;;;5014816;28;20030;-81
2022/10/06 12:48:40;;;;;;;1.10;1.00;;;33.20;42.30;;;;;;4991903;28;20133;-83
2022/10/06 12:51:17;;;;;;;2.25;0.77;;;33.20;42.90;;;;;;5004899;28;20041;-82
2022/10/06 12:54:09;;;;;;;1.63;0.90;;;33.10;44.50;;;;;;5029279;28;20326;-82
2022/10/06 12:56:37;;;;;;;1.60;0.80;;;33.10;43.20;;;;;;5017565;28;20270;-82
2022/10/06 12:59:23;;;;;;;2.53;0.90;;;33.00;45.40;;;;;;5016604;28;20040;-82
2022/10/06 13:01:52;;;;;;;1.40;0.80;;;32.90;42.10;;;;;;5008298;28;20068;-83
2022/10/06 13:04:33;;;;;;;1.90;0.90;;;32.90;45.40;;;;;;4994799;28;20029;-81
2022/10/06 13:07:19;;;;;;;1.85;0.80;;;32.80;41.80;;;;;;5024315;28;20017;-83
2022/10/06 13:09:47;;;;;;;1.20;0.90;;;32.90;45.70;;;;;;5018591;28;20014;-83
2022/10/06 13:12:24;;;;;;;1.23;0.80;;;32.90;45.50;;;;;;5006042;28;20033;-81
2022/10/06 13:15:09;;;;;;;1.95;0.85;;;32.90;43.30;;;;;;5019819;28;20491;-82
2022/10/06 13:17:45;;;;;;;2.03;0.90;;;32.80;41.90;;;;;;4999901;28;20104;-83
2022/10/06 13:20:28;;;;;;;1.30;0.98;;;32.80;44.30;;;;;;4991636;28;20029;-82
2022/10/06 13:22:57;;;;;;;1.65;0.80;;;32.80;41.80;;;;;;5006713;28;20034;-82